createdAt,value
2023-04-28T00:00:02.650Z,6.10
2023-04-28T00:02:34.429Z,11.10
2023-04-28T00:05:02.179Z,14.90
2023-04-28T00:07:33.003Z,36.20
2023-04-28T00:10:00.174Z,49.80
2023-04-28T00:12:27.364Z,55.50
2023-04-28T00:14:54.423Z,86.90
2023-04-28T00:17:21.548Z,98.10
2023-04-28T00:19:49.799Z,99.90
2023-04-28T00:22:17.048Z,99.90
2023-04-28T00:24:44.221Z,99.90
2023-04-28T00:27:11.472Z,99.90
2023-04-28T00:29:38.542Z,99.90
2023-04-28T00:32:05.926Z,99.90
2023-04-28T00:34:34.278Z,99.90
2023-04-28T00:37:01.611Z,99.90
2023-04-28T00:39:28.747Z,99.90
2023-04-28T00:41:56.078Z,99.90
2023-04-28T00:44:23.182Z,99.90
2023-04-28T00:46:50.580Z,94.70
2023-04-28T00:49:17.783Z,98.80
2023-04-28T00:52:04.995Z,99.90
2023-04-28T00:54:34.847Z,99.90
2023-04-28T00:57:05.350Z,99.90
2023-04-28T00:59:32.848Z,99.90
2023-04-28T01:02:01.132Z,99.90
2023-04-28T01:04:48.367Z,99.90
2023-04-28T01:07:15.505Z,99.90
2023-04-28T01:09:47.984Z,99.90
2023-04-28T01:12:33.781Z,99.90
2023-04-28T01:15:19.659Z,99.90
2023-04-28T01:17:47.673Z,94.30
2023-04-28T01:20:15.623Z,76.30
2023-04-28T01:23:01.832Z,91.30
2023-04-28T01:25:28.987Z,96.80
2023-04-28T01:27:56.498Z,99.90
2023-04-28T01:30:23.672Z,99.90
2023-04-28T01:32:50.795Z,99.90
2023-04-28T01:35:17.905Z,98.40
2023-04-28T01:37:45.085Z,97.40
2023-04-28T01:40:12.927Z,92.80
2023-04-28T01:42:58.992Z,94.40
2023-04-28T01:45:26.203Z,94.30
2023-04-28T01:47:53.363Z,93.20
2023-04-28T01:50:20.605Z,94.20
2023-04-28T01:53:06.449Z,97.70
2023-04-28T01:55:33.529Z,99.90
2023-04-28T01:58:00.775Z,99.90
2023-04-28T02:00:28.030Z,99.90
2023-04-28T02:02:57.925Z,99.90
2023-04-28T02:05:25.933Z,99.90
2023-04-28T02:07:53.081Z,99.90
2023-04-28T02:10:20.277Z,99.90
2023-04-28T02:12:48.051Z,99.90
2023-04-28T02:15:15.828Z,99.90
2023-04-28T02:18:01.462Z,99.90
2023-04-28T02:20:29.383Z,99.90
2023-04-28T02:23:16.225Z,99.90
2023-04-28T02:26:02.116Z,99.00
2023-04-28T02:28:49.243Z,99.90
2023-04-28T02:31:34.817Z,99.90
2023-04-28T02:34:02.265Z,99.90
2023-04-28T02:36:48.473Z,99.90
2023-04-28T02:39:15.760Z,99.90
2023-04-28T02:41:42.944Z,99.90
2023-04-28T02:44:10.078Z,99.90
2023-04-28T02:46:55.678Z,99.90
2023-04-28T02:49:41.623Z,99.90
2023-04-28T02:52:27.218Z,99.90
2023-04-28T02:54:57.560Z,99.90
2023-04-28T02:57:24.902Z,99.90
2023-04-28T02:59:51.934Z,99.90
2023-04-28T03:02:20.801Z,99.90
2023-04-28T03:05:07.080Z,99.90
2023-04-28T03:07:34.278Z,99.90
2023-04-28T03:10:01.414Z,99.90
2023-04-28T03:12:31.002Z,99.90
2023-04-28T03:14:58.414Z,99.90
2023-04-28T03:17:25.643Z,99.90
2023-04-28T03:19:52.679Z,99.90
2023-04-28T03:22:19.979Z,99.90
2023-04-28T03:24:47.080Z,99.90
2023-04-28T03:27:14.226Z,99.90
2023-04-28T03:29:41.428Z,99.90
2023-04-28T03:32:08.635Z,99.90
2023-04-28T03:34:35.952Z,99.90
2023-04-28T03:37:03.101Z,99.90
2023-04-28T03:39:30.312Z,99.90
2023-04-28T03:41:57.584Z,99.90
2023-04-28T03:44:24.731Z,99.90
2023-04-28T03:46:51.797Z,99.90
2023-04-28T03:49:18.938Z,99.90
2023-04-28T03:51:46.026Z,99.90
2023-04-28T03:54:13.178Z,99.90
2023-04-28T03:56:40.338Z,99.90
2023-04-28T03:59:07.590Z,99.90
2023-04-28T04:01:34.680Z,99.90
2023-04-28T04:04:01.968Z,99.90
2023-04-28T04:06:29.700Z,99.90
2023-04-28T04:08:57.044Z,99.90
2023-04-28T04:11:24.372Z,99.90
2023-04-28T04:14:10.121Z,99.90
2023-04-28T04:16:37.392Z,99.90
2023-04-28T04:19:04.537Z,99.90
2023-04-28T04:21:32.121Z,99.90
2023-04-28T04:23:59.227Z,99.90
2023-04-28T04:26:26.475Z,99.90
2023-04-28T04:28:53.689Z,99.90
2023-04-28T04:31:39.906Z,99.90
2023-04-28T04:34:07.326Z,99.90
2023-04-28T04:36:34.407Z,99.90
2023-04-28T04:39:01.754Z,99.90
2023-04-28T04:41:29.358Z,99.90
2023-04-28T04:43:56.422Z,99.90
2023-04-28T04:46:23.580Z,99.90
2023-04-28T04:48:50.774Z,99.90
2023-04-28T04:51:18.582Z,99.90
2023-04-28T04:53:45.770Z,99.90
2023-04-28T04:56:12.961Z,99.90
2023-04-28T04:58:44.639Z,99.90
2023-04-28T05:01:30.291Z,99.90
2023-04-28T05:03:57.608Z,99.90
2023-04-28T05:06:24.986Z,99.90
2023-04-28T05:08:52.191Z,99.90
2023-04-28T05:11:19.314Z,99.90
2023-04-28T05:13:46.665Z,99.90
2023-04-28T05:16:13.864Z,99.90
2023-04-28T05:18:41.403Z,99.90
2023-04-28T05:21:08.588Z,99.90
2023-04-28T05:23:35.905Z,99.90
2023-04-28T05:26:04.229Z,99.90
2023-04-28T05:28:31.838Z,99.90
2023-04-28T05:30:58.962Z,99.90
2023-04-28T05:33:26.173Z,99.90
2023-04-28T05:35:53.571Z,99.90
2023-04-28T05:38:22.825Z,99.90
2023-04-28T05:40:50.742Z,99.90
2023-04-28T05:43:18.119Z,99.90
2023-04-28T05:45:45.392Z,99.90
2023-04-28T05:48:12.974Z,99.90
2023-04-28T05:50:40.153Z,99.90
2023-04-28T05:53:07.833Z,99.90
2023-04-28T05:55:36.463Z,99.90
2023-04-28T05:58:05.159Z,92.60
2023-04-28T06:00:34.386Z,99.90
2023-04-28T06:03:02.209Z,99.90
2023-04-28T06:05:30.325Z,99.90
2023-04-28T06:07:57.591Z,99.90
2023-04-28T06:10:26.674Z,95.10
2023-04-28T06:12:54.176Z,92.70
2023-04-28T06:15:21.349Z,99.90
2023-04-28T06:17:48.694Z,92.70
2023-04-28T06:20:16.711Z,99.90
2023-04-28T06:22:43.878Z,99.90
2023-04-28T06:25:11.109Z,99.90
2023-04-28T06:27:38.764Z,99.90
2023-04-28T06:30:06.705Z,99.90
2023-04-28T06:32:34.176Z,99.90
2023-04-28T06:35:01.374Z,99.90
2023-04-28T06:37:28.759Z,99.90
2023-04-28T06:39:56.039Z,99.90
2023-04-28T06:42:23.163Z,99.90
2023-04-28T06:44:50.341Z,99.90
2023-04-28T06:47:17.626Z,99.90
2023-04-28T06:49:45.683Z,99.90
2023-04-28T06:52:14.403Z,99.90
2023-04-28T06:54:41.551Z,99.90
2023-04-28T06:57:08.884Z,99.90
2023-04-28T06:59:36.128Z,99.90
2023-04-28T07:02:03.404Z,99.90
2023-04-28T07:04:30.602Z,99.90
2023-04-28T07:06:57.771Z,99.90
2023-04-28T07:09:24.896Z,99.90
2023-04-28T07:11:52.141Z,99.90
2023-04-28T07:14:19.388Z,99.90
2023-04-28T07:16:47.546Z,99.90
2023-04-28T07:19:14.672Z,99.90
2023-04-28T07:21:41.782Z,99.90
2023-04-28T07:24:08.906Z,99.90
2023-04-28T07:26:36.088Z,99.90
2023-04-28T07:29:03.247Z,99.90
2023-04-28T07:31:30.514Z,99.90
2023-04-28T07:33:57.957Z,99.90
2023-04-28T07:36:44.234Z,99.90
2023-04-28T07:39:11.470Z,99.90
2023-04-28T07:41:39.141Z,99.90
2023-04-28T07:44:08.342Z,99.90
2023-04-28T07:46:35.905Z,99.90
2023-04-28T07:49:04.890Z,99.90
2023-04-28T07:51:32.023Z,99.90
2023-04-28T07:53:59.087Z,99.90
2023-04-28T07:56:44.959Z,99.90
2023-04-28T07:59:12.143Z,99.90
2023-04-28T08:01:39.871Z,99.90
2023-04-28T08:04:07.372Z,99.90
2023-04-28T08:06:36.333Z,99.90
2023-04-28T08:09:05.980Z,99.90
2023-04-28T08:11:33.655Z,99.90
2023-04-28T08:14:04.145Z,99.90
2023-04-28T08:16:32.149Z,99.90
2023-04-28T08:19:00.584Z,99.90
2023-04-28T08:21:28.247Z,99.90
2023-04-28T08:23:55.690Z,99.90
2023-04-28T08:26:24.777Z,99.90
2023-04-28T08:28:53.214Z,99.90
2023-04-28T08:31:20.481Z,99.90
2023-04-28T08:33:50.229Z,99.90
2023-04-28T08:36:18.351Z,99.90
2023-04-28T08:38:46.282Z,99.90
2023-04-28T08:41:17.119Z,99.90
2023-04-28T08:43:45.674Z,99.90
2023-04-28T08:46:16.316Z,99.90
2023-04-28T08:48:48.896Z,99.90
2023-04-28T08:51:24.448Z,99.90
2023-04-28T08:56:31.970Z,99.90
2023-04-28T08:59:05.285Z,99.90
2023-04-28T09:01:32.953Z,99.90
2023-04-28T09:04:14.239Z,99.90
2023-04-28T09:06:46.577Z,99.90
2023-04-28T09:09:20.131Z,99.90
2023-04-28T09:12:04.942Z,99.90
2023-04-28T09:14:34.703Z,99.90
2023-04-28T09:17:03.195Z,99.90
2023-04-28T09:19:36.408Z,99.90
2023-04-28T09:22:17.726Z,99.90
2023-04-28T09:24:53.323Z,99.90
2023-04-28T09:27:29.775Z,99.90
2023-04-28T09:29:57.505Z,99.90
2023-04-28T09:32:27.994Z,99.90
2023-04-28T09:34:58.601Z,99.90
2023-04-28T09:37:27.653Z,99.90
2023-04-28T09:39:55.585Z,99.90
2023-04-28T09:42:34.936Z,99.90
2023-04-28T09:45:13.692Z,99.90
2023-04-28T09:47:43.396Z,99.90
2023-04-28T09:50:17.488Z,99.90
2023-04-28T09:52:57.526Z,99.90
2023-04-28T09:55:25.415Z,99.90
2023-04-28T09:57:55.793Z,99.90
2023-04-28T10:00:23.611Z,99.90
2023-04-28T10:02:52.371Z,99.90
2023-04-28T10:05:22.231Z,99.90
2023-04-28T10:07:50.403Z,99.90
2023-04-28T10:10:18.023Z,99.90
2023-04-28T10:12:45.963Z,99.90
2023-04-28T10:15:13.798Z,99.90
2023-04-28T10:17:41.254Z,99.90
2023-04-28T10:20:09.148Z,99.90
2023-04-28T10:22:54.468Z,99.90
2023-04-28T10:25:25.965Z,99.90
2023-04-28T10:27:53.876Z,99.90
2023-04-28T10:30:28.223Z,99.90
2023-04-28T10:33:42.589Z,99.90
2023-04-28T10:36:11.817Z,99.90
2023-04-28T10:39:14.449Z,99.90
2023-04-28T10:41:42.084Z,99.90
2023-04-28T10:44:31.053Z,99.90
2023-04-28T10:47:07.052Z,99.90
2023-04-28T10:49:57.786Z,99.90
2023-04-28T10:52:35.556Z,99.90
2023-04-28T10:55:37.972Z,99.90
2023-04-28T10:58:17.703Z,99.90
2023-04-28T11:00:45.536Z,99.90
2023-04-28T11:03:37.950Z,99.90
2023-04-28T11:06:28.412Z,99.90
2023-04-28T11:08:58.156Z,99.90
2023-04-28T11:11:29.413Z,99.90
2023-04-28T11:14:19.382Z,99.90
2023-04-28T11:16:52.895Z,99.90
2023-04-28T11:19:24.637Z,99.90
2023-04-28T11:21:53.672Z,99.90
2023-04-28T11:24:21.086Z,99.90
2023-04-28T11:26:48.691Z,99.90
2023-04-28T11:29:16.075Z,99.90
2023-04-28T11:31:52.419Z,99.90
2023-04-28T11:34:24.110Z,99.90
2023-04-28T11:36:52.845Z,99.90
2023-04-28T11:39:32.789Z,99.90
2023-04-28T11:42:10.249Z,99.90
2023-04-28T11:44:37.398Z,99.90
2023-04-28T11:47:06.311Z,99.90
2023-04-28T11:49:44.133Z,99.90
2023-04-28T11:52:12.146Z,99.90
2023-04-28T11:54:39.604Z,99.90
2023-04-28T11:57:06.830Z,99.90
2023-04-28T11:59:35.817Z,99.90
2023-04-28T12:02:05.783Z,99.90
2023-04-28T12:04:38.155Z,99.90
2023-04-28T12:07:12.067Z,99.90
2023-04-28T12:09:44.580Z,99.90
2023-04-28T12:12:13.011Z,99.90
2023-04-28T12:14:58.444Z,99.90
2023-04-28T12:17:28.515Z,99.90
2023-04-28T12:20:01.127Z,99.90
2023-04-28T12:22:28.626Z,99.90
2023-04-28T12:25:13.405Z,99.90
2023-04-28T12:27:41.233Z,99.90
2023-04-28T12:30:20.885Z,99.90
2023-04-28T12:32:48.756Z,99.90
2023-04-28T12:35:16.268Z,99.90
2023-04-28T12:37:44.221Z,99.90
2023-04-28T12:40:11.650Z,99.90
2023-04-28T12:42:38.806Z,99.90
2023-04-28T12:45:07.351Z,99.90
2023-04-28T12:47:34.653Z,99.90
2023-04-28T12:50:01.809Z,99.90
2023-04-28T12:52:29.099Z,99.90
2023-04-28T12:54:56.145Z,99.90
2023-04-28T12:57:23.259Z,99.90
2023-04-28T12:59:52.595Z,99.90
2023-04-28T13:02:19.948Z,99.90
2023-04-28T13:04:47.859Z,99.90
2023-04-28T13:07:18.514Z,99.90
2023-04-28T13:09:47.707Z,99.90
2023-04-28T13:12:15.768Z,99.90
2023-04-28T13:14:42.936Z,99.90
2023-04-28T13:17:10.798Z,99.90
2023-04-28T13:19:38.149Z,99.90
2023-04-28T13:22:06.814Z,99.90
2023-04-28T13:24:33.872Z,99.90
2023-04-28T13:27:01.033Z,99.90
2023-04-28T13:29:28.826Z,99.90
2023-04-28T13:31:56.915Z,99.90
2023-04-28T13:34:24.352Z,99.90
2023-04-28T13:36:54.078Z,99.90
2023-04-28T13:39:22.238Z,99.90
2023-04-28T13:41:49.667Z,99.90
2023-04-28T13:44:17.523Z,99.90
2023-04-28T13:46:44.671Z,99.90
2023-04-28T13:49:12.564Z,99.90
2023-04-28T13:51:39.841Z,99.90
2023-04-28T13:54:11.674Z,99.90
2023-04-28T13:56:39.112Z,99.90
2023-04-28T13:59:06.272Z,99.90
2023-04-28T14:01:33.748Z,99.90
2023-04-28T14:04:01.291Z,99.90
2023-04-28T14:06:28.963Z,99.90
2023-04-28T14:08:56.613Z,99.90
2023-04-28T14:11:23.720Z,99.90
2023-04-28T14:13:51.047Z,99.90
2023-04-28T14:16:18.763Z,99.90
2023-04-28T14:18:46.069Z,99.90
2023-04-28T14:21:13.384Z,99.90
2023-04-28T14:23:40.460Z,99.90
2023-04-28T14:26:07.697Z,99.90
2023-04-28T14:28:34.828Z,99.90
2023-04-28T14:31:09.209Z,99.90
2023-04-28T14:33:36.966Z,99.90
2023-04-28T14:36:05.162Z,99.90
2023-04-28T14:38:32.616Z,99.90
2023-04-28T14:40:59.771Z,99.90
2023-04-28T14:43:26.910Z,99.90
2023-04-28T14:45:54.146Z,99.90
2023-04-28T14:48:21.499Z,99.90
2023-04-28T14:50:48.938Z,99.90
2023-04-28T14:53:16.065Z,99.90
2023-04-28T14:55:43.695Z,99.90
2023-04-28T14:58:10.828Z,99.90
2023-04-28T15:00:38.393Z,99.90
2023-04-28T15:03:05.727Z,99.90
2023-04-28T15:05:33.197Z,99.90
2023-04-28T15:08:00.390Z,99.90
2023-04-28T15:10:37.323Z,99.90
2023-04-28T15:13:06.613Z,99.90
2023-04-28T15:15:33.695Z,99.90
2023-04-28T15:18:01.218Z,99.90
2023-04-28T15:20:30.716Z,99.90
2023-04-28T15:22:58.109Z,99.90
2023-04-28T15:25:26.283Z,99.90
2023-04-28T15:27:53.382Z,99.90
2023-04-28T15:30:20.925Z,99.90
2023-04-28T15:32:49.672Z,99.90
2023-04-28T15:35:16.834Z,99.90
2023-04-28T15:37:47.774Z,99.90
2023-04-28T15:40:17.692Z,99.90
2023-04-28T15:42:53.500Z,99.90
2023-04-28T15:45:22.002Z,99.90
2023-04-28T15:47:50.788Z,99.90
2023-04-28T15:50:20.324Z,99.90
2023-04-28T15:52:50.128Z,99.90
2023-04-28T15:55:19.788Z,99.90
2023-04-28T15:57:49.196Z,99.90
2023-04-28T16:00:16.667Z,99.90
2023-04-28T16:02:45.070Z,99.90
2023-04-28T16:05:13.227Z,99.90
2023-04-28T16:07:41.251Z,99.90
2023-04-28T16:10:13.846Z,99.90
2023-04-28T16:12:41.985Z,99.90
2023-04-28T16:15:11.283Z,99.90
2023-04-28T16:17:39.309Z,99.90
2023-04-28T16:20:08.749Z,99.90
2023-04-28T16:22:36.959Z,99.90
2023-04-28T16:25:04.300Z,99.90
2023-04-28T16:27:34.088Z,99.90
2023-04-28T16:30:01.640Z,99.90
2023-04-28T16:32:33.675Z,99.90
2023-04-28T16:35:01.005Z,99.90
2023-04-28T16:37:28.435Z,99.90
2023-04-28T16:39:56.094Z,99.90
2023-04-28T16:42:23.302Z,99.90
2023-04-28T16:44:52.696Z,99.90
2023-04-28T16:47:20.755Z,99.90
2023-04-28T16:49:48.328Z,99.90
2023-04-28T16:52:16.737Z,99.90
2023-04-28T16:54:44.083Z,99.90
2023-04-28T16:57:11.505Z,99.90
2023-04-28T16:59:39.418Z,99.90
2023-04-28T17:02:07.032Z,99.90
2023-04-28T17:04:37.983Z,99.90
2023-04-28T17:07:05.628Z,99.90
2023-04-28T17:09:33.601Z,99.90
2023-04-28T17:12:01.253Z,99.90
2023-04-28T17:14:28.410Z,99.90
2023-04-28T17:16:56.020Z,99.90
2023-04-28T17:19:23.243Z,99.90
2023-04-28T17:21:52.899Z,99.90
2023-04-28T17:24:20.063Z,99.90
2023-04-28T17:26:47.319Z,99.90
2023-04-28T17:29:15.123Z,99.90
2023-04-28T17:31:42.450Z,99.90
2023-04-28T17:34:09.601Z,99.90
2023-04-28T17:36:36.814Z,99.90
2023-04-28T17:39:04.830Z,99.90
2023-04-28T17:41:32.477Z,99.90
2023-04-28T17:43:59.959Z,99.90
2023-04-28T17:46:27.710Z,99.90
2023-04-28T17:48:54.921Z,99.90
2023-04-28T17:51:22.504Z,99.90
2023-04-28T17:53:49.662Z,99.90
2023-04-28T17:56:17.025Z,99.90
2023-04-28T17:58:44.133Z,99.90
2023-04-28T18:01:11.718Z,99.90
2023-04-28T18:03:39.739Z,99.90
2023-04-28T18:06:08.216Z,99.90
2023-04-28T18:08:37.197Z,99.90
2023-04-28T18:11:05.101Z,99.90
2023-04-28T18:13:33.094Z,99.90
2023-04-28T18:16:01.091Z,99.90
2023-04-28T18:18:30.168Z,99.90
2023-04-28T18:20:59.773Z,99.90
2023-04-28T18:23:27.713Z,99.90
2023-04-28T18:25:54.833Z,99.90
2023-04-28T18:28:22.298Z,99.90
2023-04-28T18:30:49.573Z,99.90
2023-04-28T18:33:23.078Z,99.90
2023-04-28T18:35:59.496Z,99.90
2023-04-28T18:38:26.809Z,99.90
2023-04-28T18:40:54.078Z,99.90
2023-04-28T18:43:23.737Z,99.90
2023-04-28T18:45:50.946Z,99.90
2023-04-28T18:48:18.865Z,99.90
2023-04-28T18:50:48.745Z,99.90
2023-04-28T18:53:16.021Z,99.90
2023-04-28T18:55:43.094Z,99.90
2023-04-28T18:58:10.867Z,99.90
2023-04-28T19:00:38.233Z,99.90
2023-04-28T19:03:05.873Z,99.90
2023-04-28T19:05:34.044Z,99.90
2023-04-28T19:08:01.164Z,99.90
2023-04-28T19:10:28.491Z,99.90
2023-04-28T19:12:56.136Z,99.90
2023-04-28T19:15:23.540Z,99.90
2023-04-28T19:17:51.201Z,99.90
2023-04-28T19:20:18.468Z,99.90
2023-04-28T19:22:47.142Z,99.90
2023-04-28T19:25:15.883Z,99.90
2023-04-28T19:27:44.149Z,99.90
2023-04-28T19:30:13.668Z,99.90
2023-04-28T19:32:42.078Z,99.90
2023-04-28T19:35:10.039Z,99.90
2023-04-28T19:37:37.482Z,99.90
2023-04-28T19:40:05.115Z,99.90
2023-04-28T19:42:34.178Z,99.90
2023-04-28T19:45:01.510Z,99.90
2023-04-28T19:47:36.837Z,99.90
2023-04-28T19:50:05.371Z,99.90
2023-04-28T19:52:33.529Z,99.90
2023-04-28T19:55:00.986Z,99.90
2023-04-28T19:57:29.296Z,99.90
2023-04-28T19:59:56.885Z,99.90
2023-04-28T20:02:24.513Z,99.90
2023-04-28T20:04:51.905Z,99.90
2023-04-28T20:07:19.063Z,99.90
2023-04-28T20:09:46.792Z,99.90
2023-04-28T20:12:15.296Z,99.90
2023-04-28T20:14:42.562Z,99.90
2023-04-28T20:17:09.724Z,99.90
2023-04-28T20:19:37.125Z,99.90
2023-04-28T20:22:07.696Z,99.90
2023-04-28T20:24:37.081Z,99.90
2023-04-28T20:27:04.977Z,99.90
2023-04-28T20:29:35.014Z,99.90
2023-04-28T20:32:03.561Z,99.90
2023-04-28T20:34:31.693Z,99.90
2023-04-28T20:36:59.701Z,99.90
2023-04-28T20:39:26.903Z,99.90
2023-04-28T20:41:54.013Z,99.90
2023-04-28T20:44:21.170Z,99.90
2023-04-28T20:46:48.448Z,99.90
2023-04-28T20:49:15.662Z,99.90
2023-04-28T20:51:45.524Z,99.90
2023-04-28T20:54:14.042Z,99.90
2023-04-28T20:56:43.010Z,99.90
2023-04-28T20:59:10.270Z,99.90
2023-04-28T21:01:37.500Z,99.90
2023-04-28T21:04:04.886Z,99.90
2023-04-28T21:06:32.204Z,99.90
2023-04-28T21:08:59.339Z,99.90
2023-04-28T21:11:27.132Z,99.90
2023-04-28T21:13:54.788Z,99.90
2023-04-28T21:16:22.051Z,99.90
2023-04-28T21:18:50.110Z,99.90
2023-04-28T21:21:17.984Z,99.90
2023-04-28T21:23:45.767Z,99.90
2023-04-28T21:26:13.476Z,99.90
2023-04-28T21:28:41.739Z,99.90
2023-04-28T21:31:10.027Z,99.90
2023-04-28T21:33:37.311Z,99.90
2023-04-28T21:36:09.341Z,99.90
2023-04-28T21:38:37.347Z,99.90
2023-04-28T21:41:04.631Z,99.90
2023-04-28T21:43:31.790Z,99.90
2023-04-28T21:45:59.012Z,99.90
2023-04-28T21:48:26.287Z,99.90
2023-04-28T21:50:53.517Z,99.90
2023-04-28T21:53:20.744Z,99.90
2023-04-28T21:55:47.992Z,99.90
2023-04-28T21:58:15.374Z,99.90
2023-04-28T22:00:45.200Z,99.90
2023-04-28T22:03:13.903Z,99.90
2023-04-28T22:05:42.028Z,99.90
2023-04-28T22:08:09.299Z,99.90
2023-04-28T22:10:36.671Z,99.90
2023-04-28T22:13:05.218Z,99.90
2023-04-28T22:15:33.077Z,99.90
2023-04-28T22:18:00.660Z,99.90
2023-04-28T22:20:27.846Z,99.90
2023-04-28T22:22:55.030Z,99.90
2023-04-28T22:25:22.327Z,99.90
2023-04-28T22:27:49.744Z,99.90
2023-04-28T22:30:16.979Z,99.90
2023-04-28T22:32:44.990Z,99.90
2023-04-28T22:35:16.835Z,99.90
2023-04-28T22:37:44.380Z,99.90
2023-04-28T22:40:11.934Z,99.90
2023-04-28T22:42:40.926Z,99.90
2023-04-28T22:45:10.388Z,99.90
2023-04-28T22:47:40.664Z,99.90
2023-04-28T22:50:13.113Z,99.90
2023-04-28T22:52:40.405Z,99.90
2023-04-28T22:55:07.953Z,99.90
2023-04-28T22:57:35.114Z,99.90
2023-04-28T23:00:02.643Z,99.90
2023-04-28T23:02:33.865Z,99.90
2023-04-28T23:05:01.356Z,99.90
2023-04-28T23:07:31.569Z,99.90
2023-04-28T23:09:58.764Z,99.90
2023-04-28T23:12:26.685Z,99.90
2023-04-28T23:14:54.554Z,99.90
2023-04-28T23:17:21.694Z,99.90
2023-04-28T23:19:49.170Z,99.90
2023-04-28T23:22:16.605Z,99.90
2023-04-28T23:24:44.073Z,99.90
2023-04-28T23:27:11.202Z,99.90
2023-04-28T23:29:38.463Z,99.90
2023-04-28T23:32:06.211Z,99.90
2023-04-28T23:34:33.359Z,99.90
2023-04-28T23:37:00.485Z,99.90
2023-04-28T23:39:30.212Z,99.90
2023-04-28T23:41:58.694Z,99.90
2023-04-28T23:44:25.969Z,99.90
2023-04-28T23:46:54.818Z,99.90
2023-04-28T23:49:23.859Z,99.90
2023-04-28T23:51:51.029Z,99.90
2023-04-28T23:54:18.086Z,99.90
2023-04-28T23:56:45.209Z,99.90
2023-04-28T23:59:12.373Z,99.90
